createdAt,value
2023-12-03T00:04:15.102Z,80.56
2023-12-03T00:14:18.612Z,80.71
2023-12-03T00:24:22.729Z,80.78
2023-12-03T00:34:26.015Z,81.09
2023-12-03T00:44:29.869Z,80.84
2023-12-03T00:54:33.380Z,80.71
2023-12-03T01:04:36.716Z,80.82
2023-12-03T01:14:40.236Z,81.13
2023-12-03T01:24:43.424Z,81.14
2023-12-03T01:34:46.554Z,80.81
2023-12-03T01:44:49.715Z,80.62
2023-12-03T01:54:53.081Z,80.28
2023-12-03T02:04:56.514Z,80.32
2023-12-03T02:14:59.949Z,80.19
2023-12-03T02:25:03.404Z,80.05
2023-12-03T02:35:07.235Z,80.10
2023-12-03T02:45:11.522Z,79.74
2023-12-03T02:55:15.264Z,79.72
2023-12-03T03:05:18.431Z,79.87
2023-12-03T03:15:21.860Z,79.67
2023-12-03T03:25:25.503Z,79.76
2023-12-03T03:35:28.842Z,79.40
2023-12-03T03:45:32.105Z,79.52
2023-12-03T03:55:35.529Z,79.04
2023-12-03T04:05:38.870Z,79.27
2023-12-03T04:15:42.172Z,78.96
2023-12-03T04:25:45.350Z,78.66
2023-12-03T04:35:48.416Z,78.24
2023-12-03T04:45:51.877Z,77.99
2023-12-03T04:55:55.202Z,77.60
2023-12-03T05:05:58.410Z,77.40
2023-12-03T05:16:03.704Z,77.29
2023-12-03T05:26:07.862Z,77.38
2023-12-03T05:36:21.924Z,77.15
2023-12-03T05:46:25.200Z,77.29
2023-12-03T05:56:29.671Z,76.59
2023-12-03T06:06:33.282Z,76.23
2023-12-03T06:16:36.770Z,76.45
2023-12-03T06:26:40.003Z,76.55
2023-12-03T06:36:43.271Z,77.04
2023-12-03T06:46:46.589Z,77.40
2023-12-03T06:56:50.067Z,77.73
2023-12-03T07:06:53.669Z,77.97
2023-12-03T07:16:57.469Z,77.85
2023-12-03T07:27:00.774Z,78.22
2023-12-03T07:37:04.633Z,78.73
2023-12-03T07:47:07.972Z,78.45
2023-12-03T07:57:11.324Z,78.55
2023-12-03T08:07:15.120Z,78.41
2023-12-03T08:17:18.338Z,78.65
2023-12-03T08:27:23.065Z,79.07
2023-12-03T08:37:27.605Z,78.80
2023-12-03T08:47:32.688Z,78.61
2023-12-03T08:57:38.948Z,78.31
2023-12-03T09:07:44.242Z,78.05
2023-12-03T09:17:49.138Z,77.63
2023-12-03T09:27:53.372Z,77.60
2023-12-03T09:37:57.595Z,77.45
2023-12-03T09:48:03.511Z,76.62
2023-12-03T09:58:13.381Z,76.28
2023-12-03T10:08:20.075Z,75.64
2023-12-03T10:18:26.130Z,75.53
2023-12-03T10:28:32.475Z,75.03
2023-12-03T10:38:45.885Z,75.17
2023-12-03T10:48:54.286Z,74.68
2023-12-03T10:59:10.897Z,75.08
2023-12-03T11:09:19.654Z,75.02
2023-12-03T11:19:28.349Z,75.12
2023-12-03T11:29:53.294Z,75.10
2023-12-03T11:40:17.720Z,74.71
2023-12-03T11:50:24.399Z,74.96
2023-12-03T12:00:33.846Z,75.37
2023-12-03T12:10:40.453Z,76.04
2023-12-03T12:20:47.234Z,75.57
2023-12-03T12:30:52.710Z,74.78
2023-12-03T12:41:03.137Z,74.31
2023-12-03T12:51:07.574Z,74.63
2023-12-03T13:01:13.324Z,74.24
2023-12-03T13:11:21.466Z,74.46
2023-12-03T13:21:27.516Z,74.34
2023-12-03T13:31:33.830Z,75.00
2023-12-03T13:41:40.345Z,75.19
2023-12-03T13:51:46.688Z,75.12
2023-12-03T14:01:53.135Z,75.26
2023-12-03T14:11:59.914Z,75.63
2023-12-03T14:22:05.546Z,75.59
2023-12-03T14:32:11.556Z,76.21
2023-12-03T14:42:17.425Z,76.23
2023-12-03T14:52:23.718Z,76.31
2023-12-03T15:02:29.796Z,76.00
2023-12-03T15:12:37.587Z,75.52
2023-12-03T15:22:42.011Z,75.57
2023-12-03T15:32:47.184Z,75.44
2023-12-03T15:42:55.866Z,75.46
2023-12-03T15:53:00.446Z,75.40
2023-12-03T16:03:07.277Z,75.42
2023-12-03T16:13:14.382Z,75.33
2023-12-03T16:23:19.436Z,75.03
2023-12-03T16:33:27.031Z,74.69
2023-12-03T16:43:38.504Z,75.28
2023-12-03T16:53:42.607Z,75.08
2023-12-03T17:03:46.419Z,75.25
2023-12-03T17:13:49.839Z,74.94
2023-12-03T17:23:53.585Z,74.30
2023-12-03T17:33:57.770Z,74.49
2023-12-03T17:44:01.165Z,74.78
2023-12-03T17:54:07.814Z,75.43
2023-12-03T18:04:11.306Z,75.59
2023-12-03T18:14:14.773Z,75.56
2023-12-03T18:24:21.297Z,75.27
2023-12-03T18:34:25.592Z,75.54
2023-12-03T18:44:30.262Z,75.72
2023-12-03T18:54:36.037Z,75.44
2023-12-03T19:04:39.549Z,75.63
2023-12-03T19:14:43.751Z,75.77
2023-12-03T19:24:48.173Z,75.63
2023-12-03T19:34:53.337Z,75.25
2023-12-03T19:44:57.566Z,75.69
2023-12-03T19:55:01.145Z,75.72
2023-12-03T20:05:08.072Z,76.08
2023-12-03T20:15:20.862Z,76.12
2023-12-03T20:25:28.645Z,75.95
2023-12-03T20:35:32.224Z,76.13
2023-12-03T20:45:36.661Z,75.25
2023-12-03T20:55:40.107Z,74.35
2023-12-03T21:05:49.103Z,74.12
2023-12-03T21:15:55.145Z,73.73
2023-12-03T21:25:58.332Z,73.46
2023-12-03T21:36:01.716Z,73.31
2023-12-03T21:46:05.569Z,73.19
2023-12-03T21:56:09.103Z,73.76
2023-12-03T22:06:12.524Z,74.79
2023-12-03T22:16:15.880Z,74.93
2023-12-03T22:26:19.140Z,75.49
2023-12-03T22:36:22.337Z,76.12
2023-12-03T22:46:25.635Z,76.03
2023-12-03T22:56:28.945Z,76.49
2023-12-03T23:06:32.198Z,76.24
2023-12-03T23:16:45.039Z,75.78
2023-12-03T23:26:48.579Z,75.71
2023-12-03T23:36:52.197Z,75.54
2023-12-03T23:46:55.615Z,75.01
2023-12-03T23:56:58.917Z,74.53
